LIPZ/VCE METAR and TAF weather

Enter ICAO airport designator
Station Type Date Time Source
LIPZ METAR 2022/01/23 12:20 UTC NOAA

LIPZ 231220Z 03007KT 360V060 CAVOK 08/02 Q1030 NOSIG


Station Type Date Time Source
LIPZ Decoded METAR 2022/01/23 12:20 UTC NOAA

Venezia / Tessera, Italy (LIPZ) 45-30N 012-20E 6M
Jan 23, 2022 - 07:20 AM EST / 2022.01.23 1220 UTC
Wind: from the NNE (030 degrees) at 8 MPH (7 KT) (direction variable):0
Visibility: greater than 7 mile(s):0
Temperature: 46 F (8 C)
Dew Point: 35 F (2 C)
Relative Humidity: 65%
Pressure (altimeter): 30.42 in. Hg (1030 hPa)
ob: LIPZ 231220Z 03007KT 360V060 CAVOK 08/02 Q1030 NOSIG
cycle: 12

Station Type Date Time Source
LIPZ TAF 2022/01/23 12:21 UTC NOAA

TAF LIPZ 231100Z 2312/2418 04006KT 7000 SCT020
BECMG 2317/2319 2000 BR
BECMG 2320/2322 0300 FZFG BKN003
BECMG 2409/2411 3000 BR SCT010

Example: see airport list